메인 페이지
METAR-TAF:

METAR-TAF

공항 :

페샤와르, 파키스탄

위도: 34-01N, 경도: 071-35E, 고도: 359m

현재 날씨관측

예보는 1 시간 7분 전, 21:00시(UTC)에 발표되었습니다.
6kt
온도 28°C
습도 42%
기압 1000 hPa
시정: 7000m
고도 4000ft 상공 구름 보통
고도 10000ft 상공 구름 보통
연무

METAR: OPPS 282100Z 09006KT 7000 HZ SCT040 SCT100 28/14 Q1000

시각: 03:07 (22:07 UTC)

예보

예보는 5 시간 7분 전, 17:00시(UTC)에 발표되었습니다.
예보 대상 시간: 28일 18시부터 29일 24시까지 (UTC)
남남서15kt, 순간 최대 풍속 25kt
시정: 4000m
고도 4000ft 상공 구름 보통
고도 10000ft 상공 구름 많음
시계 내 뇌우
일시적
29일 03시부터 29일 07시까지 (UTC)
시정: 5000m
고도 4000ft 상공 구름 보통
고도 10000ft 상공 구름 보통
전환 중
29일 07시부터 29일 09시까지 (UTC)
남남서15kt, 순간 최대 풍속 30kt
시정: 3000m
고도 4000ft 상공 구름 보통
고도 10000ft 상공 구름 많음
뇌우, 비
일시적
29일 12시부터 29일 16시까지 (UTC)
남남서15kt, 순간 최대 풍속 40kt
시정: 0800m
전환 중
29일 17시부터 29일 19시까지 (UTC)
남남서15kt, 순간 최대 풍속 30kt
시정: 3000m
고도 4000ft 상공 구름 보통
고도 10000ft 상공 구름 많음
뇌우, 비

TAF: OPPS 281700Z 2818/2924 21015G25KT 4000 VCTS FEW030TCU/CB SCT040 BKN100 TEMPO 2903/2907 5000 SCT040 SCT100 BECMG 2907/2909 21015G30KT 3000 TSRA FEW030TCU/CB SCT040 BKN100 TEMPO 2912/2916 21015G40KT 0800 DSTSRA FEW030TCU/CB BECMG 2917/2919 21015G30KT 3000 TSRA FEW030TCU/CB SCT040 BKN100

4,000개 이상의 공항 관측 자료 및 예보 (METAR 및 TAF 보고).

지도상에서 검색 가능한 기상관측소가 노란 점과 빨간 점으로 표시되어 있습니다.

기상관측소 명을 보려면 표시 위로 마우스를 이동하세요.

날씨 관측과 예보를 보려면 클릭하세요.

지도 변경 : 확대하려면 엑스 표시가 있는 녹색 버튼, 축소하려면 빼기 표시가 있는 녹색 버튼, 다음 페이지의 지도를 보려면 녹색 화살표를 클릭하세요.


METAR-TAF: